createdAt,value
2019-02-21T00:01:47.661Z,102058.97
2019-02-21T00:04:16.149Z,102063.47
2019-02-21T00:06:44.632Z,102065.78
2019-02-21T00:09:13.185Z,102066.41
2019-02-21T00:11:41.565Z,102069.23
2019-02-21T00:14:09.973Z,102071.89
2019-02-21T00:16:38.380Z,102071.89
2019-02-21T00:19:06.808Z,102071.03
2019-02-21T00:21:35.460Z,102073.00
2019-02-21T00:24:03.879Z,102070.84
2019-02-21T00:26:32.314Z,102067.33
2019-02-21T00:29:01.042Z,102064.83
2019-02-21T00:31:29.422Z,102063.49
2019-02-21T00:33:58.081Z,102058.99
2019-02-21T00:36:26.499Z,102062.28
2019-02-21T00:38:54.914Z,102054.66
2019-02-21T00:41:23.621Z,102058.30
2019-02-21T00:43:52.012Z,102057.31
2019-02-21T00:46:20.421Z,102055.98
2019-02-21T00:48:49.076Z,102062.00
2019-02-21T00:51:17.532Z,102061.38
2019-02-21T00:53:46.192Z,102056.05
2019-02-21T00:56:14.625Z,102055.06
2019-02-21T00:58:43.293Z,102065.59
2019-02-21T01:01:11.713Z,102045.47
2019-02-21T01:03:40.120Z,102047.66
2019-02-21T01:06:08.539Z,102053.80
2019-02-21T01:08:37.192Z,102049.81
2019-02-21T01:11:06.113Z,102048.48
2019-02-21T01:13:34.516Z,102055.48
2019-02-21T01:16:02.951Z,102059.31
2019-02-21T01:18:31.354Z,102053.01
2019-02-21T01:20:59.774Z,102053.86
2019-02-21T01:23:28.217Z,102046.36
2019-02-21T01:25:56.613Z,102053.01
2019-02-21T01:28:25.021Z,102052.03
2019-02-21T01:30:57.083Z,102052.88
2019-02-21T01:33:24.089Z,102050.56
2019-02-21T01:35:52.499Z,102047.91
2019-02-21T01:38:20.982Z,102058.91
2019-02-21T01:40:49.383Z,102047.27
2019-02-21T01:43:18.109Z,102056.59
2019-02-21T01:45:46.795Z,102048.61
2019-02-21T01:48:15.473Z,102046.92
2019-02-21T01:50:43.887Z,102048.09
2019-02-21T01:53:12.307Z,102043.28
2019-02-21T01:55:40.710Z,102043.63
2019-02-21T01:58:09.699Z,102051.61
2019-02-21T02:00:39.679Z,102051.27
2019-02-21T02:03:08.395Z,102048.61
2019-02-21T02:05:37.058Z,102044.89
2019-02-21T02:08:05.462Z,102046.23
2019-02-21T02:10:33.863Z,102045.72
2019-02-21T02:13:02.289Z,102049.58
2019-02-21T02:15:30.711Z,102048.61
2019-02-21T02:17:59.124Z,102047.63
2019-02-21T02:20:27.528Z,102051.96
2019-02-21T02:22:56.191Z,102053.98
2019-02-21T02:25:24.843Z,102052.78
2019-02-21T02:27:53.256Z,102050.00
2019-02-21T02:30:22.003Z,102055.80
2019-02-21T02:32:50.421Z,102054.63
2019-02-21T02:35:18.824Z,102050.98
2019-02-21T02:37:47.246Z,102050.98
2019-02-21T02:40:15.917Z,102047.97
2019-02-21T02:42:44.343Z,102047.63
2019-02-21T02:45:12.827Z,102050.28
2019-02-21T02:47:41.300Z,102060.93
2019-02-21T02:50:10.094Z,102058.27
2019-02-21T02:52:38.586Z,102051.27
2019-02-21T02:55:07.166Z,102049.94
2019-02-21T02:57:35.630Z,102051.27
2019-02-21T03:00:06.431Z,102045.94
2019-02-21T03:02:34.845Z,102047.63
2019-02-21T03:05:03.260Z,102056.94
2019-02-21T03:07:31.664Z,102049.42
2019-02-21T03:10:00.137Z,102053.92
2019-02-21T03:12:28.672Z,102045.94
2019-02-21T03:14:57.089Z,102045.94
2019-02-21T03:17:25.754Z,102050.63
2019-02-21T03:19:54.159Z,102049.30
2019-02-21T03:22:22.599Z,102053.64
2019-02-21T03:24:51.063Z,102056.30
2019-02-21T03:27:19.861Z,102051.96
2019-02-21T03:29:48.266Z,102048.79
2019-02-21T03:32:16.703Z,102054.28
2019-02-21T03:34:45.508Z,102061.56
2019-02-21T03:37:14.103Z,102048.89
2019-02-21T03:39:42.515Z,102050.86
2019-02-21T03:42:11.020Z,102049.65
2019-02-21T03:44:39.422Z,102051.84
2019-02-21T03:47:08.098Z,102053.33
2019-02-21T03:49:36.755Z,102051.30
2019-02-21T03:52:05.178Z,102055.42
2019-02-21T03:54:33.856Z,102055.06
2019-02-21T03:57:02.266Z,102055.86
2019-02-21T03:59:30.677Z,102060.95
2019-02-21T04:02:05.415Z,102063.27
2019-02-21T04:04:29.641Z,102062.92
2019-02-21T04:06:58.058Z,102056.91
2019-02-21T04:09:26.459Z,102061.56
2019-02-21T04:11:54.872Z,102062.66
2019-02-21T04:14:23.291Z,102063.45
2019-02-21T04:16:51.715Z,102068.07
2019-02-21T04:19:20.115Z,102060.09
2019-02-21T04:21:48.517Z,102058.53
2019-02-21T04:24:16.938Z,102059.05
2019-02-21T04:26:45.345Z,102053.02
2019-02-21T04:29:13.771Z,102046.02
2019-02-21T04:31:42.185Z,102041.69
2019-02-21T04:34:10.609Z,102037.19
2019-02-21T04:36:39.014Z,102039.02
2019-02-21T04:39:07.436Z,102030.22
2019-02-21T04:41:36.226Z,102025.38
2019-02-21T04:44:04.703Z,102027.68
2019-02-21T04:46:33.072Z,102029.02
2019-02-21T04:49:01.483Z,102027.33
2019-02-21T04:51:29.905Z,102027.48
2019-02-21T04:53:58.319Z,102032.58
2019-02-21T04:56:27.013Z,102030.20
2019-02-21T04:58:55.453Z,102037.48
2019-02-21T05:01:23.842Z,102040.08
2019-02-21T05:03:52.238Z,102031.08
2019-02-21T05:06:20.947Z,102037.03
2019-02-21T05:08:49.352Z,102033.31
2019-02-21T05:11:17.779Z,102037.59
2019-02-21T05:13:46.487Z,102035.83
2019-02-21T05:16:15.206Z,102040.61
2019-02-21T05:18:43.967Z,102043.03
2019-02-21T05:21:12.377Z,102033.37
2019-02-21T05:23:40.783Z,102033.73
2019-02-21T05:26:11.113Z,102029.11
2019-02-21T05:28:41.248Z,102033.45
2019-02-21T05:31:11.789Z,102031.14
2019-02-21T05:33:56.841Z,102027.03
2019-02-21T05:36:43.363Z,102030.36
2019-02-21T05:39:25.357Z,102028.41
2019-02-21T05:42:01.625Z,102025.62
2019-02-21T05:44:33.637Z,102027.30
2019-02-21T05:47:06.582Z,102021.98
2019-02-21T05:49:39.667Z,102032.46
2019-02-21T05:52:18.762Z,102028.00
2019-02-21T05:54:48.819Z,102030.66
2019-02-21T05:57:24.790Z,102022.68
2019-02-21T06:00:11.395Z,102033.31
2019-02-21T06:02:59.682Z,102033.31
2019-02-21T06:05:35.699Z,102039.61
2019-02-21T06:08:08.434Z,102032.62
2019-02-21T06:10:44.043Z,102039.61
2019-02-21T06:13:23.260Z,102033.44
2019-02-21T06:15:55.775Z,102028.00
2019-02-21T06:18:31.941Z,102029.95
2019-02-21T06:21:16.944Z,102029.61
2019-02-21T06:23:49.701Z,102033.72
2019-02-21T06:26:19.758Z,102028.91
2019-02-21T06:28:49.823Z,102038.84
2019-02-21T06:31:18.229Z,102034.16
2019-02-21T06:33:49.328Z,102037.80
2019-02-21T06:36:16.792Z,102040.45
2019-02-21T06:38:45.218Z,102031.14
2019-02-21T06:41:13.619Z,102035.48
2019-02-21T06:43:42.124Z,102029.81
2019-02-21T06:46:10.543Z,102038.06
2019-02-21T06:48:38.941Z,102043.38
2019-02-21T06:51:07.366Z,102046.05
2019-02-21T06:53:35.781Z,102046.05
2019-02-21T06:56:04.178Z,102055.34
2019-02-21T06:58:32.608Z,102060.67
2019-02-21T07:01:01.026Z,102056.68
2019-02-21T07:03:29.426Z,102063.68
2019-02-21T07:05:58.115Z,102067.31
2019-02-21T07:08:26.517Z,102068.02
2019-02-21T07:11:05.439Z,102070.33
2019-02-21T07:13:27.008Z,102071.38
2019-02-21T07:15:55.635Z,102071.73
2019-02-21T07:18:24.043Z,102061.64
2019-02-21T07:20:52.787Z,102061.87
2019-02-21T07:23:21.770Z,102073.91
2019-02-21T07:25:51.362Z,102077.31
2019-02-21T07:28:19.771Z,102083.48
2019-02-21T07:30:49.071Z,102093.91
2019-02-21T07:33:27.759Z,102099.30
2019-02-21T07:35:48.019Z,102100.98
2019-02-21T07:38:17.286Z,102099.50
2019-02-21T07:40:45.841Z,102090.53
2019-02-21T07:43:14.249Z,102090.41
2019-02-21T07:45:42.669Z,102094.75
2019-02-21T07:48:11.078Z,102092.09
2019-02-21T07:50:39.498Z,102097.41
2019-02-21T07:53:07.910Z,102100.83
2019-02-21T07:55:36.330Z,102099.66
2019-02-21T07:58:04.804Z,102105.33
2019-02-21T08:00:33.218Z,102107.48
2019-02-21T08:03:01.629Z,102121.08
2019-02-21T08:05:30.051Z,102119.79
2019-02-21T08:07:58.471Z,102131.77
2019-02-21T08:10:33.487Z,102129.73
2019-02-21T08:12:57.384Z,102135.37
2019-02-21T08:15:27.760Z,102148.95
2019-02-21T08:17:55.876Z,102143.05
2019-02-21T08:20:33.645Z,102149.50
2019-02-21T08:22:54.423Z,102150.48
2019-02-21T08:25:22.831Z,102164.06
2019-02-21T08:27:51.579Z,102151.03
2019-02-21T08:30:19.977Z,102151.66
2019-02-21T08:33:01.538Z,102150.33
2019-02-21T08:35:31.235Z,102151.19
2019-02-21T08:37:59.904Z,102150.68
2019-02-21T08:40:28.330Z,102158.73
2019-02-21T08:42:56.733Z,102167.42
2019-02-21T08:45:25.208Z,102159.16
2019-02-21T08:47:53.644Z,102153.56
2019-02-21T08:50:22.529Z,102142.65
2019-02-21T08:52:51.100Z,102153.02
2019-02-21T08:55:19.905Z,102153.05
2019-02-21T08:57:48.603Z,102150.19
2019-02-21T09:00:17.361Z,102161.67
2019-02-21T09:02:45.789Z,102165.11
2019-02-21T09:05:14.431Z,102152.69
2019-02-21T09:07:42.909Z,102162.86
2019-02-21T09:10:12.669Z,102165.72
2019-02-21T09:12:41.424Z,102158.27
2019-02-21T09:15:15.211Z,102162.61
2019-02-21T09:17:43.702Z,102147.62
2019-02-21T09:20:12.911Z,102131.02
2019-02-21T09:22:41.312Z,102146.36
2019-02-21T09:25:11.669Z,102154.34
2019-02-21T09:27:40.083Z,102152.53
2019-02-21T09:30:13.827Z,102146.36
2019-02-21T09:32:42.314Z,102143.16
2019-02-21T09:35:10.745Z,102135.80
2019-02-21T09:37:39.298Z,102126.32
2019-02-21T09:40:10.830Z,102128.28
2019-02-21T09:42:39.693Z,102122.98
2019-02-21T09:45:10.926Z,102122.21
2019-02-21T09:47:39.335Z,102119.08
2019-02-21T09:50:09.383Z,102121.53
2019-02-21T09:52:37.818Z,102130.73
2019-02-21T09:55:09.523Z,102139.27
2019-02-21T09:57:38.257Z,102138.30
2019-02-21T10:00:13.069Z,102137.30
2019-02-21T10:02:42.185Z,102149.30
2019-02-21T10:05:10.749Z,102147.28
2019-02-21T10:07:39.176Z,102141.58
2019-02-21T10:10:10.635Z,102142.57
2019-02-21T10:12:39.063Z,102137.93
2019-02-21T10:15:10.130Z,102134.45
2019-02-21T10:17:38.909Z,102136.71
2019-02-21T10:20:12.851Z,102129.45
2019-02-21T10:22:41.310Z,102133.16
2019-02-21T10:25:13.053Z,102137.20
2019-02-21T10:27:41.476Z,102147.41
2019-02-21T10:30:13.503Z,102142.59
2019-02-21T10:32:41.219Z,102135.57
2019-02-21T10:35:09.781Z,102141.89
2019-02-21T10:37:38.213Z,102133.08
2019-02-21T10:40:12.335Z,102141.94
2019-02-21T10:42:41.034Z,102147.28
2019-02-21T10:45:15.186Z,102148.97
2019-02-21T10:47:43.679Z,102142.47
2019-02-21T10:50:17.227Z,102154.95
2019-02-21T10:52:45.644Z,102157.62
2019-02-21T10:55:14.815Z,102154.30
2019-02-21T10:57:45.329Z,102156.56
2019-02-21T11:00:16.288Z,102158.84
2019-02-21T11:02:44.734Z,102160.17
2019-02-21T11:05:13.481Z,102154.33
2019-02-21T11:07:41.901Z,102164.61
2019-02-21T11:10:12.852Z,102166.34
2019-02-21T11:12:41.275Z,102160.32
2019-02-21T11:15:14.678Z,102155.33
2019-02-21T11:17:43.121Z,102167.73
2019-02-21T11:20:14.155Z,102164.47
2019-02-21T11:22:42.581Z,102160.86
2019-02-21T11:25:12.034Z,102160.22
2019-02-21T11:27:40.935Z,102154.25
2019-02-21T11:30:14.456Z,102160.27
2019-02-21T11:32:42.916Z,102162.13
2019-02-21T11:35:11.471Z,102164.34
2019-02-21T11:37:43.384Z,102172.00
2019-02-21T11:40:12.560Z,102163.28
2019-02-21T11:42:40.990Z,102156.17
2019-02-21T11:45:17.399Z,102161.11
2019-02-21T11:47:46.191Z,102153.36
2019-02-21T11:50:17.232Z,102152.32
2019-02-21T11:52:46.019Z,102158.94
2019-02-21T11:55:22.467Z,102156.27
2019-02-21T11:57:50.946Z,102146.64
2019-02-21T12:00:24.442Z,102150.22
2019-02-21T12:02:52.850Z,102159.44
2019-02-21T12:05:30.688Z,102164.42
2019-02-21T12:07:51.860Z,102158.05
2019-02-21T12:10:20.313Z,102148.66
2019-02-21T12:12:48.744Z,102149.02
2019-02-21T12:15:17.644Z,102154.34
2019-02-21T12:17:46.051Z,102160.88
2019-02-21T12:20:18.546Z,102179.60
2019-02-21T12:22:47.307Z,102167.44
2019-02-21T12:25:21.495Z,102158.45
2019-02-21T12:27:49.904Z,102159.14
2019-02-21T12:30:20.344Z,102156.17
2019-02-21T12:32:48.758Z,102160.17
2019-02-21T12:35:28.779Z,102171.88
2019-02-21T12:37:47.343Z,102173.56
2019-02-21T12:40:20.064Z,102173.56
2019-02-21T12:42:48.493Z,102175.24
2019-02-21T12:45:21.186Z,102172.23
2019-02-21T12:47:53.526Z,102175.54
2019-02-21T12:50:19.753Z,102176.88
2019-02-21T12:52:48.196Z,102166.84
2019-02-21T12:55:27.177Z,102173.99
2019-02-21T12:57:46.761Z,102170.50
2019-02-21T13:00:19.943Z,102166.63
2019-02-21T13:02:48.361Z,102170.16
2019-02-21T13:05:16.765Z,102161.80
2019-02-21T13:07:45.504Z,102160.13
2019-02-21T13:10:21.693Z,102164.77
2019-02-21T13:12:50.454Z,102168.59
2019-02-21T13:15:18.887Z,102177.70
2019-02-21T13:17:47.310Z,102161.87
2019-02-21T13:20:15.996Z,102166.00
2019-02-21T13:22:44.424Z,102162.00
2019-02-21T13:25:17.158Z,102163.68
2019-02-21T13:27:45.914Z,102170.70
2019-02-21T13:30:19.269Z,102161.02
2019-02-21T13:32:47.678Z,102164.67
2019-02-21T13:35:16.476Z,102168.62
2019-02-21T13:37:44.975Z,102169.93
2019-02-21T13:40:16.974Z,102177.42
2019-02-21T13:42:44.718Z,102173.93
2019-02-21T13:45:17.386Z,102172.59
2019-02-21T13:47:45.343Z,102172.44
2019-02-21T13:50:17.834Z,102178.30
2019-02-21T13:52:46.260Z,102175.68
2019-02-21T13:55:14.678Z,102177.36
2019-02-21T13:57:43.363Z,102179.73
2019-02-21T14:00:20.444Z,102184.72
2019-02-21T14:02:49.010Z,102186.41
2019-02-21T14:05:17.743Z,102184.03
2019-02-21T14:07:46.501Z,102189.02
2019-02-21T14:10:15.356Z,102186.00
2019-02-21T14:12:43.773Z,102183.34
2019-02-21T14:15:18.096Z,102181.82
2019-02-21T14:17:46.927Z,102187.58
2019-02-21T14:20:15.898Z,102195.17
2019-02-21T14:22:44.287Z,102189.91
2019-02-21T14:25:12.707Z,102187.36
2019-02-21T14:27:41.106Z,102201.61
2019-02-21T14:30:19.427Z,102190.89
2019-02-21T14:32:48.220Z,102188.14
2019-02-21T14:35:17.032Z,102186.05
2019-02-21T14:37:45.435Z,102188.31
2019-02-21T14:40:15.389Z,102190.28
2019-02-21T14:42:43.824Z,102190.41
2019-02-21T14:45:15.043Z,102192.25
2019-02-21T14:47:43.448Z,102188.75
2019-02-21T14:50:12.642Z,102187.90
2019-02-21T14:52:41.047Z,102192.25
2019-02-21T14:55:11.807Z,102191.73
2019-02-21T14:57:41.313Z,102183.55
2019-02-21T15:00:21.584Z,102194.38
2019-02-21T15:02:49.994Z,102190.50
2019-02-21T15:05:19.255Z,102206.77
2019-02-21T15:07:47.940Z,102197.03
2019-02-21T15:10:16.482Z,102199.98
2019-02-21T15:12:45.213Z,102201.98
2019-02-21T15:15:16.715Z,102203.95
2019-02-21T15:17:45.135Z,102205.41
2019-02-21T15:20:15.618Z,102215.58
2019-02-21T15:22:44.354Z,102210.73
2019-02-21T15:25:13.045Z,102211.71
2019-02-21T15:27:41.471Z,102206.89
2019-02-21T15:30:18.274Z,102212.34
2019-02-21T15:32:46.698Z,102207.17
2019-02-21T15:35:15.290Z,102208.98
2019-02-21T15:37:45.090Z,102206.83
2019-02-21T15:40:14.176Z,102210.82
2019-02-21T15:42:42.586Z,102209.14
2019-02-21T15:45:23.347Z,102204.16
2019-02-21T15:47:49.718Z,102214.47
2019-02-21T15:50:19.910Z,102214.47
2019-02-21T15:52:48.719Z,102222.45
2019-02-21T15:55:18.461Z,102218.45
2019-02-21T15:57:46.893Z,102219.80
2019-02-21T16:00:20.144Z,102223.44
2019-02-21T16:02:48.605Z,102221.25
2019-02-21T16:05:17.312Z,102237.39
2019-02-21T16:07:45.724Z,102228.06
2019-02-21T16:10:20.058Z,102226.03
2019-02-21T16:12:48.770Z,102241.38
2019-02-21T16:15:18.176Z,102239.70
2019-02-21T16:17:46.592Z,102245.38
2019-02-21T16:20:16.681Z,102252.03
2019-02-21T16:22:45.449Z,102250.70
2019-02-21T16:25:28.079Z,102256.03
2019-02-21T16:27:56.495Z,102252.38
2019-02-21T16:30:24.900Z,102256.38
2019-02-21T16:32:53.650Z,102251.05
2019-02-21T16:35:22.051Z,102265.70
2019-02-21T16:37:50.839Z,102263.86
2019-02-21T16:40:20.785Z,102264.72
2019-02-21T16:42:49.528Z,102264.37
2019-02-21T16:45:21.919Z,102259.16
2019-02-21T16:47:50.595Z,102263.67
2019-02-21T16:50:29.309Z,102258.34
2019-02-21T16:52:49.484Z,102260.30
2019-02-21T16:55:20.052Z,102276.28
2019-02-21T16:57:48.422Z,102270.25
2019-02-21T17:00:22.597Z,102277.54
2019-02-21T17:02:51.093Z,102283.84
2019-02-21T17:05:19.825Z,102288.47
2019-02-21T17:07:48.231Z,102285.26
2019-02-21T17:10:17.299Z,102290.35
2019-02-21T17:12:46.065Z,102292.81
2019-02-21T17:15:16.386Z,102301.66
2019-02-21T17:17:44.801Z,102293.80
2019-02-21T17:20:18.306Z,102300.25
2019-02-21T17:22:46.741Z,102296.03
2019-02-21T17:25:15.977Z,102305.15
2019-02-21T17:27:45.448Z,102305.15
2019-02-21T17:30:18.040Z,102316.42
2019-02-21T17:32:46.793Z,102321.39
2019-02-21T17:35:15.641Z,102322.02
2019-02-21T17:37:44.060Z,102314.66
2019-02-21T17:40:15.554Z,102322.80
2019-02-21T17:42:43.982Z,102322.44
2019-02-21T17:45:13.141Z,102318.56
2019-02-21T17:47:42.047Z,102319.90
2019-02-21T17:50:13.464Z,102320.88
2019-02-21T17:52:42.220Z,102315.36
2019-02-21T17:55:11.470Z,102329.99
2019-02-21T17:57:39.893Z,102323.45
2019-02-21T18:00:21.603Z,102329.75
2019-02-21T18:02:50.113Z,102327.87
2019-02-21T18:05:18.520Z,102329.32
2019-02-21T18:07:47.248Z,102338.43
2019-02-21T18:10:16.949Z,102341.95
2019-02-21T18:12:45.390Z,102333.26
2019-02-21T18:15:15.367Z,102343.91
2019-02-21T18:17:43.770Z,102340.38
2019-02-21T18:20:14.352Z,102347.55
2019-02-21T18:22:42.795Z,102358.30
2019-02-21T18:25:29.298Z,102352.63
2019-02-21T18:27:57.728Z,102349.77
2019-02-21T18:30:26.130Z,102357.74
2019-02-21T18:32:54.536Z,102358.72
2019-02-21T18:35:23.049Z,102363.69
2019-02-21T18:37:51.461Z,102362.47
2019-02-21T18:40:22.460Z,102369.42
2019-02-21T18:42:50.922Z,102376.19
2019-02-21T18:45:19.417Z,102386.98
2019-02-21T18:47:47.900Z,102382.75
2019-02-21T18:50:16.318Z,102388.07
2019-02-21T18:52:44.728Z,102379.73
2019-02-21T18:55:13.483Z,102384.70
2019-02-21T18:57:41.987Z,102371.41
2019-02-21T19:00:19.467Z,102376.01
2019-02-21T19:02:47.944Z,102372.99
2019-02-21T19:05:16.416Z,102380.00
2019-02-21T19:07:45.093Z,102381.33
2019-02-21T19:10:16.901Z,102387.98
2019-02-21T19:12:45.308Z,102396.82
2019-02-21T19:15:15.373Z,102400.92
2019-02-21T19:17:43.883Z,102389.81
2019-02-21T19:20:17.126Z,102391.00
2019-02-21T19:23:04.867Z,102396.47
2019-02-21T19:25:33.553Z,102384.61
2019-02-21T19:28:02.865Z,102402.05
2019-02-21T19:30:40.696Z,102409.17
2019-02-21T19:33:09.291Z,102412.95
2019-02-21T19:35:37.718Z,102418.77
2019-02-21T19:38:10.785Z,102428.41
2019-02-21T19:40:39.026Z,102439.05
2019-02-21T19:43:07.435Z,102443.39
2019-02-21T19:45:35.855Z,102445.69
2019-02-21T19:48:04.484Z,102448.50
2019-02-21T19:50:33.369Z,102452.64
2019-02-21T19:53:01.955Z,102452.28
2019-02-21T19:55:30.896Z,102450.59
2019-02-21T19:57:59.606Z,102457.09
2019-02-21T20:00:30.226Z,102462.56
2019-02-21T20:02:58.658Z,102459.90
2019-02-21T20:05:27.521Z,102469.83
2019-02-21T20:07:56.320Z,102471.16
2019-02-21T20:10:25.300Z,102461.48
2019-02-21T20:12:54.698Z,102456.78
2019-02-21T20:15:24.088Z,102465.13
2019-02-21T20:17:52.535Z,102469.72
2019-02-21T20:20:28.851Z,102469.72
2019-02-21T20:22:57.280Z,102475.30
2019-02-21T20:25:25.707Z,102475.56
2019-02-21T20:27:54.538Z,102471.21
2019-02-21T20:30:23.499Z,102487.67
2019-02-21T20:32:52.119Z,102495.40
2019-02-21T20:35:22.593Z,102505.67
2019-02-21T20:37:51.012Z,102510.64
2019-02-21T20:40:19.776Z,102510.64
2019-02-21T20:42:48.176Z,102514.27
2019-02-21T20:45:16.664Z,102519.58
2019-02-21T20:47:46.001Z,102513.91
2019-02-21T20:50:14.699Z,102525.16
2019-02-21T20:52:43.133Z,102526.84
2019-02-21T20:55:12.222Z,102529.50
2019-02-21T20:57:41.017Z,102536.51
2019-02-21T21:00:13.825Z,102538.45
2019-02-21T21:02:43.279Z,102538.45
2019-02-21T21:05:15.009Z,102539.42
2019-02-21T21:07:43.889Z,102536.98
2019-02-21T21:10:15.278Z,102540.61
2019-02-21T21:12:44.067Z,102531.44
2019-02-21T21:15:14.028Z,102533.63
2019-02-21T21:17:42.565Z,102532.30
2019-02-21T21:20:17.383Z,102539.78
2019-02-21T21:22:46.097Z,102543.77
2019-02-21T21:25:15.981Z,102541.61
2019-02-21T21:27:44.386Z,102551.24
2019-02-21T21:30:14.656Z,102549.91
2019-02-21T21:32:43.342Z,102557.89
2019-02-21T21:35:11.836Z,102560.55
2019-02-21T21:37:40.335Z,102553.57
2019-02-21T21:40:15.368Z,102564.53
2019-02-21T21:42:43.855Z,102561.19
2019-02-21T21:45:16.807Z,102565.64
2019-02-21T21:47:45.250Z,102569.27
2019-02-21T21:50:18.562Z,102569.27
2019-02-21T21:52:47.017Z,102574.48
2019-02-21T21:55:15.501Z,102572.54
2019-02-21T21:57:44.010Z,102577.39
2019-02-21T22:00:23.591Z,102580.66
2019-02-21T22:02:52.011Z,102586.94
2019-02-21T22:05:22.462Z,102594.44
2019-02-21T22:07:51.229Z,102588.05
2019-02-21T22:10:19.761Z,102601.94
2019-02-21T22:12:48.270Z,102593.84
2019-02-21T22:15:19.921Z,102600.13
2019-02-21T22:17:48.405Z,102602.07
2019-02-21T22:20:17.083Z,102609.68
2019-02-21T22:22:45.511Z,102610.28
2019-02-21T22:25:14.552Z,102607.77
2019-02-21T22:27:42.991Z,102612.83
2019-02-21T22:30:19.773Z,102617.81
2019-02-21T22:32:48.220Z,102623.13
2019-02-21T22:35:17.022Z,102617.45
2019-02-21T22:37:45.491Z,102624.45
2019-02-21T22:40:18.051Z,102630.73
2019-02-21T22:42:46.823Z,102633.39
2019-02-21T22:45:15.626Z,102632.67
2019-02-21T22:47:44.319Z,102631.80
2019-02-21T22:50:17.397Z,102630.48
2019-02-21T22:52:45.832Z,102629.28
2019-02-21T22:55:14.565Z,102627.96
2019-02-21T22:57:42.977Z,102632.41
2019-02-21T23:00:53.818Z,102636.66
2019-02-21T23:03:23.990Z,102641.00
2019-02-21T23:06:13.492Z,102642.05
2019-02-21T23:08:45.259Z,102644.38
2019-02-21T23:11:13.914Z,102646.18
2019-02-21T23:13:42.408Z,102648.11
2019-02-21T23:16:10.916Z,102652.09
2019-02-21T23:18:39.603Z,102657.05
2019-02-21T23:21:08.036Z,102648.25
2019-02-21T23:23:36.523Z,102663.22
2019-02-21T23:26:05.250Z,102663.22
2019-02-21T23:28:33.672Z,102676.27
2019-02-21T23:31:02.098Z,102680.86
2019-02-21T23:33:32.078Z,102687.86
2019-02-21T23:36:00.502Z,102680.72
2019-02-21T23:38:28.914Z,102686.90
2019-02-21T23:40:57.670Z,102689.89
2019-02-21T23:43:26.077Z,102699.19
2019-02-21T23:45:54.835Z,102706.83
2019-02-21T23:48:23.532Z,102708.16
2019-02-21T23:50:51.952Z,102714.80
2019-02-21T23:53:20.369Z,102705.50
2019-02-21T23:55:48.790Z,102712.38
2019-02-21T23:58:17.228Z,102721.17
